createdAt,value
2022-08-19T00:00:23.074Z,90.90
2022-08-19T00:02:24.775Z,90.38
2022-08-19T00:04:29.983Z,89.41
2022-08-19T00:06:31.918Z,88.04
2022-08-19T00:08:33.492Z,88.41
2022-08-19T00:10:35.104Z,88.87
2022-08-19T00:12:39.530Z,88.22
2022-08-19T00:14:48.629Z,87.35
2022-08-19T00:16:52.449Z,87.68
2022-08-19T00:18:57.458Z,87.49
2022-08-19T00:21:00.374Z,86.99
2022-08-19T00:23:01.881Z,86.51
2022-08-19T00:25:03.960Z,86.50
2022-08-19T00:27:25.960Z,86.82
2022-08-19T00:29:27.543Z,85.57
2022-08-19T00:31:29.107Z,82.58
2022-08-19T00:33:33.463Z,80.62
2022-08-19T00:35:35.196Z,79.41
2022-08-19T00:37:36.932Z,77.56
2022-08-19T00:39:38.637Z,77.72
2022-08-19T00:41:40.448Z,81.11
2022-08-19T00:43:42.185Z,83.03
2022-08-19T00:45:44.593Z,84.11
2022-08-19T00:47:46.498Z,84.74
2022-08-19T00:49:54.713Z,85.38
2022-08-19T00:52:17.734Z,87.00
2022-08-19T00:54:20.179Z,87.14
2022-08-19T00:56:32.318Z,86.13
2022-08-19T00:58:36.242Z,87.44
2022-08-19T01:00:38.808Z,87.92
2022-08-19T01:02:41.890Z,88.35
2022-08-19T01:04:43.430Z,88.34
2022-08-19T01:06:44.974Z,88.77
2022-08-19T01:08:46.900Z,89.08
2022-08-19T01:10:55.805Z,89.23
2022-08-19T01:13:00.449Z,89.29
2022-08-19T01:15:02.386Z,89.42
2022-08-19T01:17:04.783Z,89.52
2022-08-19T01:19:20.034Z,89.30
2022-08-19T01:21:35.460Z,89.44
2022-08-19T01:23:45.928Z,88.84
2022-08-19T01:25:54.654Z,87.12
2022-08-19T01:27:56.719Z,87.00
2022-08-19T01:30:06.752Z,87.83
2022-08-19T01:32:32.006Z,87.71
2022-08-19T01:34:35.123Z,88.32
2022-08-19T01:36:45.350Z,88.86
2022-08-19T01:38:47.222Z,89.21
2022-08-19T01:40:48.830Z,89.44
2022-08-19T01:42:51.319Z,89.58
2022-08-19T01:44:52.825Z,89.70
2022-08-19T01:46:54.372Z,89.47
2022-08-19T01:48:55.950Z,89.38
2022-08-19T01:50:57.453Z,89.25
2022-08-19T01:53:06.379Z,89.06
2022-08-19T01:55:13.768Z,89.12
2022-08-19T01:57:15.775Z,88.69
2022-08-19T01:59:21.511Z,88.88
2022-08-19T02:01:23.078Z,88.96
2022-08-19T02:03:27.424Z,89.05
2022-08-19T02:05:30.185Z,89.15
2022-08-19T02:07:31.791Z,88.94
2022-08-19T02:09:33.615Z,88.48
2022-08-19T02:11:37.407Z,88.27
2022-08-19T02:13:38.906Z,88.35
2022-08-19T02:15:40.875Z,88.66
2022-08-19T02:17:43.136Z,88.67
2022-08-19T02:19:44.634Z,88.72
2022-08-19T02:21:46.157Z,88.90
2022-08-19T02:23:48.122Z,88.81
2022-08-19T02:25:50.201Z,89.00
2022-08-19T02:27:51.717Z,89.38
2022-08-19T02:29:53.594Z,89.79
2022-08-19T02:31:55.090Z,90.08
2022-08-19T02:33:57.489Z,90.44
2022-08-19T02:35:59.042Z,90.65
2022-08-19T02:38:19.733Z,90.79
2022-08-19T02:40:22.092Z,91.13
2022-08-19T02:42:23.882Z,91.48
2022-08-19T02:44:31.354Z,91.20
2022-08-19T02:46:34.452Z,91.46
2022-08-19T02:48:35.936Z,90.51
2022-08-19T02:50:41.195Z,90.46
2022-08-19T02:52:54.788Z,90.62
2022-08-19T02:54:58.383Z,91.08
2022-08-19T02:56:59.880Z,91.50
2022-08-19T02:59:01.401Z,91.74
2022-08-19T03:01:03.426Z,91.57
2022-08-19T03:03:05.405Z,90.00
2022-08-19T03:05:09.064Z,87.81
2022-08-19T03:07:14.839Z,86.12
2022-08-19T03:09:17.847Z,86.80
2022-08-19T03:11:24.911Z,87.84
2022-08-19T03:13:26.575Z,88.62
2022-08-19T03:15:28.148Z,89.30
2022-08-19T03:17:29.651Z,89.42
2022-08-19T03:19:32.472Z,87.43
2022-08-19T03:21:35.348Z,83.92
2022-08-19T03:23:37.105Z,80.07
2022-08-19T03:25:42.928Z,76.69
2022-08-19T03:27:44.503Z,74.91
2022-08-19T03:29:46.582Z,74.61
2022-08-19T03:31:52.309Z,76.32
2022-08-19T03:33:54.328Z,73.90
2022-08-19T03:36:05.982Z,72.50
2022-08-19T03:38:08.253Z,71.73
2022-08-19T03:40:10.158Z,71.55
2022-08-19T03:42:32.503Z,71.99
2022-08-19T03:44:37.293Z,74.07
2022-08-19T03:46:38.818Z,79.98
2022-08-19T03:48:46.097Z,84.47
2022-08-19T03:50:47.584Z,87.28
2022-08-19T03:52:53.019Z,89.74
2022-08-19T03:54:54.765Z,90.89
2022-08-19T03:56:57.451Z,89.63
2022-08-19T03:59:00.595Z,86.24
2022-08-19T04:01:02.114Z,87.25
2022-08-19T04:03:03.789Z,85.08
2022-08-19T04:05:06.516Z,81.34
2022-08-19T04:07:10.352Z,79.52
2022-08-19T04:09:12.652Z,85.01
2022-08-19T04:11:16.808Z,87.50
2022-08-19T04:13:18.886Z,85.43
2022-08-19T04:15:21.649Z,81.87
2022-08-19T04:17:23.380Z,78.62
2022-08-19T04:19:25.079Z,81.83
2022-08-19T04:21:28.283Z,85.13
2022-08-19T04:23:29.853Z,84.69
2022-08-19T04:25:36.959Z,86.65
2022-08-19T04:27:38.454Z,86.54
2022-08-19T04:29:41.331Z,83.88
2022-08-19T04:31:46.061Z,83.35
2022-08-19T04:33:47.788Z,86.35
2022-08-19T04:35:52.524Z,87.21
2022-08-19T04:37:54.008Z,88.13
2022-08-19T04:40:14.620Z,88.82
2022-08-19T04:42:37.255Z,89.46
2022-08-19T04:44:44.045Z,89.22
2022-08-19T04:46:51.405Z,89.88
2022-08-19T04:48:54.451Z,89.00
2022-08-19T04:51:01.047Z,88.85
2022-08-19T04:53:02.707Z,88.79
2022-08-19T04:55:06.952Z,88.39
2022-08-19T04:57:11.123Z,88.76
2022-08-19T04:59:12.973Z,88.50
2022-08-19T05:01:18.880Z,89.38
2022-08-19T05:03:21.713Z,89.62
2022-08-19T05:05:23.208Z,90.10
2022-08-19T05:07:24.801Z,90.47
2022-08-19T05:09:26.368Z,90.97
2022-08-19T05:11:33.961Z,91.02
2022-08-19T05:13:35.542Z,91.28
2022-08-19T05:15:37.273Z,91.42
2022-08-19T05:17:39.373Z,91.55
2022-08-19T05:19:59.589Z,89.78
2022-08-19T05:22:20.492Z,86.79
2022-08-19T05:24:24.441Z,85.54
2022-08-19T05:26:27.068Z,85.72
2022-08-19T05:28:28.622Z,86.31
2022-08-19T05:30:46.799Z,85.79
2022-08-19T05:32:49.216Z,86.07
2022-08-19T05:34:50.750Z,86.39
2022-08-19T05:36:57.190Z,87.40
2022-08-19T05:38:58.684Z,88.18
2022-08-19T05:41:00.207Z,88.58
2022-08-19T05:43:01.699Z,89.13
2022-08-19T05:45:05.359Z,89.09
2022-08-19T05:47:09.340Z,89.21
2022-08-19T05:49:10.916Z,89.41
2022-08-19T05:51:12.720Z,89.76
2022-08-19T05:53:15.306Z,89.85
2022-08-19T05:55:16.783Z,89.64
2022-08-19T05:57:20.218Z,88.96
2022-08-19T05:59:22.548Z,88.08
2022-08-19T06:01:27.552Z,88.02
2022-08-19T06:03:29.033Z,88.44
2022-08-19T06:05:31.667Z,88.26
2022-08-19T06:07:47.944Z,88.47
2022-08-19T06:10:00.782Z,88.34
2022-08-19T06:12:03.949Z,88.06
2022-08-19T06:14:09.522Z,87.74
2022-08-19T06:16:24.674Z,87.88
2022-08-19T06:18:26.186Z,88.05
2022-08-19T06:20:54.040Z,88.13
2022-08-19T06:22:51.323Z,86.95
2022-08-19T06:24:54.592Z,86.92
2022-08-19T06:27:00.793Z,83.87
2022-08-19T06:29:07.271Z,82.53
2022-08-19T06:31:09.193Z,83.49
2022-08-19T06:33:10.831Z,84.40
2022-08-19T06:35:13.561Z,84.93
2022-08-19T06:37:15.166Z,85.06
2022-08-19T06:39:20.495Z,85.58
2022-08-19T06:41:22.039Z,85.89
2022-08-19T06:43:23.533Z,86.02
2022-08-19T06:45:34.455Z,86.06
2022-08-19T06:47:37.313Z,86.00
2022-08-19T06:49:39.429Z,85.57
2022-08-19T06:51:48.273Z,85.21
2022-08-19T06:53:52.871Z,85.33
2022-08-19T06:56:00.841Z,81.78
2022-08-19T06:58:04.700Z,80.36
2022-08-19T07:00:13.034Z,81.40
2022-08-19T07:02:14.732Z,82.37
2022-08-19T07:04:19.264Z,81.67
2022-08-19T07:08:43.918Z,75.54
2022-08-19T07:10:46.456Z,77.76
2022-08-19T07:12:50.014Z,76.66
2022-08-19T07:14:51.640Z,78.35
2022-08-19T07:16:56.641Z,79.63
2022-08-19T07:18:59.085Z,79.34
2022-08-19T07:21:30.385Z,79.24
2022-08-19T07:23:32.023Z,79.65
2022-08-19T07:25:33.541Z,79.78
2022-08-19T07:27:35.590Z,77.53
2022-08-19T07:29:37.588Z,78.60
2022-08-19T07:31:39.625Z,79.13
2022-08-19T07:33:44.247Z,79.52
2022-08-19T07:35:45.785Z,78.91
2022-08-19T07:37:47.435Z,69.95
2022-08-19T07:39:49.313Z,75.85
2022-08-19T07:41:51.597Z,77.15
2022-08-19T07:43:54.012Z,77.31
2022-08-19T07:45:59.649Z,77.21
2022-08-19T07:48:02.042Z,77.32
2022-08-19T07:50:07.836Z,76.91
2022-08-19T07:52:10.739Z,77.15
2022-08-19T07:54:12.639Z,76.98
2022-08-19T07:56:15.503Z,76.81
2022-08-19T07:58:20.557Z,76.91
2022-08-19T08:00:24.390Z,76.27
2022-08-19T08:02:26.171Z,75.24
2022-08-19T08:04:47.213Z,71.10
2022-08-19T08:07:07.096Z,72.06
2022-08-19T08:09:12.202Z,68.87
2022-08-19T08:11:15.479Z,65.24
2022-08-19T08:13:17.457Z,64.83
2022-08-19T08:15:19.396Z,71.65
2022-08-19T08:17:48.564Z,72.99
2022-08-19T08:19:46.441Z,73.53
2022-08-19T08:21:49.480Z,73.55
2022-08-19T08:23:55.653Z,70.53
2022-08-19T08:25:59.482Z,70.58
2022-08-19T08:28:01.179Z,72.74
2022-08-19T08:30:03.874Z,73.18
2022-08-19T08:32:14.023Z,73.35
2022-08-19T08:34:16.303Z,74.17
2022-08-19T08:36:18.465Z,74.08
2022-08-19T08:38:19.960Z,73.29
2022-08-19T08:40:28.568Z,72.85
2022-08-19T08:42:33.407Z,72.62
2022-08-19T08:44:37.628Z,71.73
2022-08-19T08:46:46.791Z,71.66
2022-08-19T08:48:57.477Z,71.53
2022-08-19T08:51:02.537Z,68.58
2022-08-19T08:53:09.468Z,69.67
2022-08-19T08:55:14.769Z,70.15
2022-08-19T08:57:28.877Z,69.58
2022-08-19T08:59:39.655Z,69.52
2022-08-19T09:01:41.473Z,69.20
2022-08-19T09:03:46.296Z,68.02
2022-08-19T09:06:04.822Z,69.07
2022-08-19T09:08:29.930Z,69.26
2022-08-19T09:10:44.710Z,69.02
2022-08-19T09:13:01.511Z,68.87
2022-08-19T09:15:08.497Z,68.02
2022-08-19T09:17:10.636Z,67.30
2022-08-19T09:19:12.225Z,66.71
2022-08-19T09:21:15.202Z,67.13
2022-08-19T09:23:16.775Z,67.59
2022-08-19T09:25:26.729Z,67.52
2022-08-19T09:27:42.859Z,67.06
2022-08-19T09:29:54.745Z,66.69
2022-08-19T09:31:56.448Z,63.89
2022-08-19T09:33:58.186Z,62.18
2022-08-19T09:36:21.743Z,61.65
2022-08-19T09:38:31.012Z,61.57
2022-08-19T09:40:37.785Z,61.04
2022-08-19T09:42:50.342Z,60.72
2022-08-19T09:44:52.516Z,61.75
2022-08-19T09:46:54.055Z,62.70
2022-08-19T09:48:59.382Z,62.65
2022-08-19T09:51:11.970Z,62.32
2022-08-19T09:53:13.585Z,61.75
2022-08-19T09:55:16.958Z,60.92
2022-08-19T09:57:19.608Z,60.66
2022-08-19T09:59:21.425Z,60.36
2022-08-19T10:01:26.063Z,60.29
2022-08-19T10:03:30.203Z,59.79
2022-08-19T10:05:49.891Z,60.23
2022-08-19T10:07:51.818Z,60.31
2022-08-19T10:09:53.424Z,59.39
2022-08-19T10:11:55.189Z,59.72
2022-08-19T10:13:57.352Z,59.31
2022-08-19T10:16:08.644Z,57.72
2022-08-19T10:18:12.136Z,58.11
2022-08-19T10:20:13.760Z,58.48
2022-08-19T10:22:16.157Z,58.23
2022-08-19T10:24:17.740Z,58.23
2022-08-19T10:26:23.688Z,58.73
2022-08-19T10:28:28.069Z,58.26
2022-08-19T10:30:31.943Z,58.81
2022-08-19T10:32:34.622Z,58.42
2022-08-19T10:34:37.967Z,56.98
2022-08-19T10:36:56.039Z,57.29
2022-08-19T10:39:02.562Z,56.24
2022-08-19T10:41:20.148Z,56.06
2022-08-19T10:43:21.705Z,55.84
2022-08-19T10:45:26.203Z,54.48
2022-08-19T10:47:31.751Z,53.64
2022-08-19T10:49:53.403Z,53.80
2022-08-19T10:52:18.978Z,48.53
2022-08-19T10:54:31.429Z,52.65
2022-08-19T10:56:53.592Z,47.92
2022-08-19T10:58:55.219Z,45.70
2022-08-19T11:00:58.910Z,44.98
2022-08-19T11:03:00.541Z,43.33
2022-08-19T11:05:12.323Z,41.97
2022-08-19T11:07:14.390Z,42.59
2022-08-19T11:09:20.063Z,49.79
2022-08-19T11:11:22.469Z,43.15
2022-08-19T11:13:24.392Z,40.82
2022-08-19T11:15:26.020Z,39.84
2022-08-19T11:17:27.916Z,40.11
2022-08-19T11:19:29.493Z,40.65
2022-08-19T11:21:37.997Z,38.95
2022-08-19T11:23:39.621Z,38.12
2022-08-19T11:25:41.314Z,42.02
2022-08-19T11:27:44.160Z,40.15
2022-08-19T11:29:45.713Z,40.85
2022-08-19T11:31:49.462Z,41.80
2022-08-19T11:33:54.654Z,41.49
2022-08-19T11:36:00.082Z,41.42
2022-08-19T11:38:02.360Z,41.74
2022-08-19T11:40:05.829Z,41.94
2022-08-19T11:42:28.136Z,49.18
2022-08-19T11:44:31.250Z,42.72
2022-08-19T11:46:32.832Z,46.74
2022-08-19T11:48:35.808Z,44.20
2022-08-19T11:50:37.319Z,42.16
2022-08-19T11:52:38.841Z,42.22
2022-08-19T11:54:40.344Z,40.62
2022-08-19T11:56:42.519Z,40.61
2022-08-19T11:58:44.562Z,40.34
2022-08-19T12:00:46.213Z,39.80
2022-08-19T12:02:47.727Z,41.32
2022-08-19T12:04:49.396Z,40.90
2022-08-19T12:06:51.140Z,40.78
2022-08-19T12:08:53.117Z,39.87
2022-08-19T12:10:54.608Z,40.46
2022-08-19T12:12:58.843Z,39.23
2022-08-19T12:15:00.677Z,40.52
2022-08-19T12:17:03.173Z,39.63
2022-08-19T12:19:06.066Z,41.29
2022-08-19T12:21:07.620Z,41.39
2022-08-19T12:23:10.614Z,41.21
2022-08-19T12:25:12.761Z,41.54
2022-08-19T12:27:14.402Z,41.83
2022-08-19T12:29:30.267Z,42.54
2022-08-19T12:31:32.792Z,41.81
2022-08-19T12:33:34.424Z,42.17
2022-08-19T12:35:36.247Z,42.21
2022-08-19T12:37:38.236Z,42.34
2022-08-19T12:39:43.040Z,44.31
2022-08-19T12:41:54.266Z,43.03
2022-08-19T12:43:56.715Z,42.54
2022-08-19T12:45:58.592Z,42.49
2022-08-19T12:48:00.126Z,40.99
2022-08-19T12:50:06.480Z,41.42
2022-08-19T12:52:09.657Z,41.14
2022-08-19T12:54:11.799Z,41.84
2022-08-19T12:56:15.688Z,39.85
2022-08-19T12:58:18.038Z,40.00
2022-08-19T13:00:22.490Z,40.78
2022-08-19T13:02:23.982Z,46.06
2022-08-19T13:04:25.523Z,40.46
2022-08-19T13:06:27.581Z,40.28
2022-08-19T13:08:29.059Z,40.44
2022-08-19T13:10:36.617Z,40.80
2022-08-19T13:12:38.679Z,40.92
2022-08-19T13:14:41.923Z,48.25
2022-08-19T13:16:44.087Z,40.55
2022-08-19T13:18:48.346Z,40.42
2022-08-19T13:20:53.017Z,42.35
2022-08-19T13:22:55.732Z,46.56
2022-08-19T13:24:57.253Z,41.70
2022-08-19T13:26:59.775Z,41.70
2022-08-19T13:29:19.763Z,44.04
2022-08-19T13:31:42.772Z,42.49
2022-08-19T13:33:44.321Z,41.56
2022-08-19T13:35:47.943Z,41.81
2022-08-19T13:37:49.539Z,42.07
2022-08-19T13:39:51.126Z,41.55
2022-08-19T13:41:52.753Z,42.19
2022-08-19T13:43:55.180Z,41.58
2022-08-19T13:45:57.599Z,42.27
2022-08-19T13:47:59.955Z,45.59
2022-08-19T13:50:05.351Z,42.63
2022-08-19T13:52:06.921Z,42.26
2022-08-19T13:54:09.659Z,40.24
2022-08-19T13:56:24.154Z,47.35
2022-08-19T13:58:27.442Z,41.83
2022-08-19T14:00:31.919Z,41.66
2022-08-19T14:02:33.442Z,42.43
2022-08-19T14:04:38.393Z,41.49
2022-08-19T14:06:39.886Z,42.34
2022-08-19T14:08:46.057Z,41.74
2022-08-19T14:10:48.176Z,49.44
2022-08-19T14:12:50.205Z,49.30
2022-08-19T14:14:51.697Z,44.70
2022-08-19T14:16:53.186Z,46.68
2022-08-19T14:18:54.718Z,42.61
2022-08-19T14:20:57.227Z,44.68
2022-08-19T14:23:00.519Z,43.35
2022-08-19T14:25:02.164Z,42.28
2022-08-19T14:27:04.333Z,42.62
2022-08-19T14:29:06.539Z,44.08
2022-08-19T14:31:09.109Z,49.45
2022-08-19T14:33:10.586Z,42.74
2022-08-19T14:35:13.777Z,49.59
2022-08-19T14:37:15.902Z,45.28
2022-08-19T14:39:18.192Z,43.55
2022-08-19T14:41:24.514Z,43.53
2022-08-19T14:43:25.997Z,43.73
2022-08-19T14:45:29.455Z,43.77
2022-08-19T14:47:30.944Z,43.59
2022-08-19T14:49:41.158Z,44.75
2022-08-19T14:51:46.530Z,50.09
2022-08-19T14:53:50.841Z,48.61
2022-08-19T14:55:52.468Z,50.39
2022-08-19T14:57:54.018Z,50.30
2022-08-19T14:59:58.008Z,43.71
2022-08-19T15:02:00.701Z,51.30
2022-08-19T15:04:22.163Z,45.31
2022-08-19T15:06:25.833Z,44.03
2022-08-19T15:08:29.628Z,44.27
2022-08-19T15:10:31.653Z,44.02
2022-08-19T15:12:34.958Z,43.85
2022-08-19T15:14:38.630Z,51.35
2022-08-19T15:16:41.828Z,46.59
2022-08-19T15:18:45.585Z,44.77
2022-08-19T15:20:48.624Z,44.56
2022-08-19T15:22:52.612Z,45.26
2022-08-19T15:24:55.890Z,45.74
2022-08-19T15:26:58.354Z,47.72
2022-08-19T15:29:01.364Z,51.45
2022-08-19T15:31:04.073Z,43.38
2022-08-19T15:33:06.198Z,43.87
2022-08-19T15:35:08.429Z,48.90
2022-08-19T15:37:10.074Z,45.49
2022-08-19T15:39:11.669Z,47.15
2022-08-19T15:41:23.956Z,43.11
2022-08-19T15:43:25.538Z,44.13
2022-08-19T15:45:32.590Z,42.96
2022-08-19T15:47:35.385Z,43.54
2022-08-19T15:49:37.237Z,50.98
2022-08-19T15:51:41.828Z,51.73
2022-08-19T15:53:43.550Z,51.65
2022-08-19T15:55:46.152Z,51.44
2022-08-19T15:58:06.177Z,43.25
2022-08-19T16:00:28.291Z,44.06
2022-08-19T16:02:48.682Z,45.20
2022-08-19T16:05:13.587Z,42.91
2022-08-19T16:07:15.145Z,42.69
2022-08-19T16:09:29.114Z,42.69
2022-08-19T16:11:39.471Z,42.72
2022-08-19T16:13:41.738Z,42.64
2022-08-19T16:15:43.989Z,43.32
2022-08-19T16:17:45.527Z,43.56
2022-08-19T16:19:58.093Z,45.01
2022-08-19T16:21:59.622Z,44.07
2022-08-19T16:24:05.206Z,43.11
2022-08-19T16:26:06.768Z,50.35
2022-08-19T16:28:09.620Z,43.98
2022-08-19T16:30:11.661Z,43.69
2022-08-19T16:32:13.237Z,43.72
2022-08-19T16:34:14.765Z,43.62
2022-08-19T16:36:16.640Z,43.86
2022-08-19T16:38:19.714Z,43.86
2022-08-19T16:40:22.875Z,45.32
2022-08-19T16:42:24.435Z,43.75
2022-08-19T16:44:29.836Z,43.87
2022-08-19T16:46:31.575Z,43.99
2022-08-19T16:48:34.955Z,43.82
2022-08-19T16:50:49.072Z,44.02
2022-08-19T16:52:50.941Z,44.33
2022-08-19T16:54:52.878Z,46.00
2022-08-19T16:56:56.092Z,43.72
2022-08-19T16:58:59.761Z,44.14
2022-08-19T17:01:04.435Z,43.95
2022-08-19T17:03:14.615Z,44.19
2022-08-19T17:05:16.987Z,44.48
2022-08-19T17:07:19.568Z,44.77
2022-08-19T17:09:26.073Z,44.85
2022-08-19T17:11:31.160Z,45.04
2022-08-19T17:13:32.683Z,44.91
2022-08-19T17:15:34.856Z,46.24
2022-08-19T17:17:37.241Z,48.65
2022-08-19T17:19:41.774Z,47.97
2022-08-19T17:21:43.286Z,49.45
2022-08-19T17:23:44.786Z,50.65
2022-08-19T17:25:46.523Z,50.24
2022-08-19T17:27:48.094Z,50.45
2022-08-19T17:29:49.626Z,51.01
2022-08-19T17:31:51.307Z,52.36
2022-08-19T17:33:52.924Z,52.28
2022-08-19T17:35:56.674Z,52.44
2022-08-19T17:38:03.019Z,52.99
2022-08-19T17:40:07.024Z,53.70
2022-08-19T17:42:09.844Z,54.05
2022-08-19T17:44:11.329Z,54.10
2022-08-19T17:46:20.477Z,54.64
2022-08-19T17:48:24.023Z,55.07
2022-08-19T17:50:25.792Z,55.04
2022-08-19T17:52:27.294Z,55.36
2022-08-19T17:54:33.729Z,55.59
2022-08-19T17:56:35.575Z,55.99
2022-08-19T17:58:38.482Z,56.17
2022-08-19T18:00:53.717Z,56.46
2022-08-19T18:02:58.234Z,56.64
2022-08-19T18:04:59.718Z,56.93
2022-08-19T18:07:04.135Z,57.07
2022-08-19T18:09:06.629Z,57.09
2022-08-19T18:11:08.970Z,57.02
2022-08-19T18:13:17.666Z,57.07
2022-08-19T18:15:21.329Z,57.18
2022-08-19T18:17:23.422Z,57.12
2022-08-19T18:19:25.980Z,56.74
2022-08-19T18:21:35.708Z,56.90
2022-08-19T18:23:43.780Z,56.58
2022-08-19T18:25:47.482Z,56.84
2022-08-19T18:27:49.082Z,56.48
2022-08-19T18:29:50.765Z,56.69
2022-08-19T18:31:56.557Z,56.87
2022-08-19T18:33:58.810Z,56.92
2022-08-19T18:36:01.701Z,57.37
2022-08-19T18:38:26.285Z,57.49
2022-08-19T18:40:48.339Z,57.57
2022-08-19T18:43:08.459Z,58.12
2022-08-19T18:45:30.335Z,58.07
2022-08-19T18:47:50.632Z,58.41
2022-08-19T18:49:52.292Z,57.34
2022-08-19T18:51:56.539Z,57.88
2022-08-19T18:53:59.593Z,58.19
2022-08-19T18:56:02.489Z,58.86
2022-08-19T18:58:03.994Z,59.35
2022-08-19T19:00:07.586Z,59.29
2022-08-19T19:02:11.874Z,59.14
2022-08-19T19:04:13.525Z,59.31
2022-08-19T19:06:25.671Z,58.59
2022-08-19T19:08:27.614Z,58.96
2022-08-19T19:10:29.202Z,59.46
2022-08-19T19:12:30.868Z,60.00
2022-08-19T19:14:49.169Z,59.88
2022-08-19T19:16:51.936Z,60.32
2022-08-19T19:18:53.506Z,60.56
2022-08-19T19:20:56.190Z,60.55
2022-08-19T19:22:58.415Z,60.80
2022-08-19T19:25:02.521Z,60.55
2022-08-19T19:27:06.877Z,60.79
2022-08-19T19:29:08.436Z,60.67
2022-08-19T19:31:13.927Z,60.94
2022-08-19T19:33:15.511Z,60.92
2022-08-19T19:35:17.145Z,60.84
2022-08-19T19:37:19.552Z,60.79
2022-08-19T19:39:44.814Z,61.08
2022-08-19T19:41:42.772Z,61.19
2022-08-19T19:43:44.539Z,61.05
2022-08-19T19:45:46.542Z,60.90
2022-08-19T19:47:50.155Z,60.83
2022-08-19T19:50:13.371Z,61.16
2022-08-19T19:52:14.106Z,60.76
2022-08-19T19:54:15.690Z,60.93
2022-08-19T19:56:17.369Z,61.13
2022-08-19T19:58:19.231Z,61.04
2022-08-19T20:00:30.158Z,61.11
2022-08-19T20:02:31.734Z,60.90
2022-08-19T20:04:33.257Z,61.00
2022-08-19T20:06:36.148Z,61.04
2022-08-19T20:08:56.435Z,61.24
2022-08-19T20:11:02.354Z,61.18
2022-08-19T20:13:04.824Z,61.06
2022-08-19T20:15:08.113Z,61.14
2022-08-19T20:17:09.699Z,60.80
2022-08-19T20:19:13.342Z,60.80
2022-08-19T20:21:14.875Z,61.18
2022-08-19T20:23:18.397Z,61.00
2022-08-19T20:25:22.222Z,60.97
2022-08-19T20:27:24.222Z,61.34
2022-08-19T20:29:38.996Z,61.08
2022-08-19T20:31:44.332Z,61.04
2022-08-19T20:34:00.989Z,61.18
2022-08-19T20:36:02.841Z,60.97
2022-08-19T20:38:06.473Z,61.08
2022-08-19T20:40:10.110Z,60.97
2022-08-19T20:42:11.684Z,61.20
2022-08-19T20:44:13.179Z,60.94
2022-08-19T20:46:15.017Z,60.88
2022-08-19T20:48:16.592Z,61.00
2022-08-19T20:50:18.347Z,61.07
2022-08-19T20:52:20.111Z,61.40
2022-08-19T20:54:21.713Z,61.75
2022-08-19T20:56:23.286Z,61.66
2022-08-19T20:58:25.634Z,61.98
2022-08-19T21:00:29.330Z,61.79
2022-08-19T21:02:30.825Z,62.15
2022-08-19T21:04:33.045Z,61.53
2022-08-19T21:06:34.762Z,61.51
2022-08-19T21:08:37.446Z,61.70
2022-08-19T21:10:42.389Z,61.72
2022-08-19T21:12:44.452Z,61.78
2022-08-19T21:14:47.116Z,61.66
2022-08-19T21:16:50.412Z,61.70
2022-08-19T21:18:51.922Z,61.63
2022-08-19T21:20:55.187Z,61.63
2022-08-19T21:22:56.697Z,61.69
2022-08-19T21:24:58.237Z,61.74
2022-08-19T21:27:00.457Z,61.94
2022-08-19T21:29:01.971Z,62.04
2022-08-19T21:31:06.207Z,62.05
2022-08-19T21:33:07.758Z,62.01
2022-08-19T21:35:10.022Z,61.88
2022-08-19T21:37:18.947Z,61.85
2022-08-19T21:39:26.918Z,61.71
2022-08-19T21:41:28.455Z,61.81
2022-08-19T21:43:30.187Z,61.84
2022-08-19T21:45:31.800Z,61.86
2022-08-19T21:47:33.413Z,61.83
2022-08-19T21:49:35.128Z,61.81
2022-08-19T21:51:36.661Z,61.94
2022-08-19T21:53:38.732Z,61.94
2022-08-19T21:55:40.615Z,61.91
2022-08-19T21:57:42.665Z,61.87
2022-08-19T21:59:44.406Z,61.88
2022-08-19T22:01:50.461Z,61.96
2022-08-19T22:03:55.599Z,61.81
2022-08-19T22:05:58.612Z,61.92
2022-08-19T22:08:01.567Z,61.74
2022-08-19T22:10:06.305Z,61.90
2022-08-19T22:12:11.197Z,61.85
2022-08-19T22:14:12.751Z,61.95
2022-08-19T22:16:15.358Z,61.83
2022-08-19T22:18:17.881Z,62.24
2022-08-19T22:20:23.012Z,62.75
2022-08-19T22:22:27.990Z,63.58
2022-08-19T22:24:29.502Z,63.57
2022-08-19T22:26:31.823Z,64.03
2022-08-19T22:28:33.333Z,63.13
2022-08-19T22:30:36.211Z,65.62
2022-08-19T22:32:38.900Z,67.68
2022-08-19T22:34:41.205Z,68.83
2022-08-19T22:36:42.736Z,67.61
2022-08-19T22:38:44.329Z,69.08
2022-08-19T22:40:48.530Z,69.79
2022-08-19T22:43:10.184Z,70.80
2022-08-19T22:45:15.516Z,71.30
2022-08-19T22:47:18.029Z,71.14
2022-08-19T22:49:19.596Z,71.13
2022-08-19T22:51:39.652Z,70.90
2022-08-19T22:53:43.597Z,71.90
2022-08-19T22:55:45.104Z,70.37
2022-08-19T22:57:46.582Z,67.55
2022-08-19T22:59:50.179Z,64.01
2022-08-19T23:01:51.675Z,63.09
2022-08-19T23:03:53.570Z,62.71
2022-08-19T23:05:56.204Z,65.16
2022-08-19T23:07:58.578Z,66.46
2022-08-19T23:10:00.310Z,66.48
2022-08-19T23:12:01.813Z,65.10
2022-08-19T23:14:05.585Z,65.11
2022-08-19T23:16:07.504Z,64.66
2022-08-19T23:18:09.022Z,64.17
2022-08-19T23:20:14.446Z,63.58
2022-08-19T23:22:17.817Z,63.92
2022-08-19T23:24:19.431Z,63.35
2022-08-19T23:26:21.337Z,63.07
2022-08-19T23:28:42.175Z,63.42
2022-08-19T23:30:48.657Z,67.80
2022-08-19T23:32:50.141Z,69.46
2022-08-19T23:34:52.512Z,70.53
2022-08-19T23:36:54.052Z,69.71
2022-08-19T23:38:55.601Z,70.51
2022-08-19T23:41:00.602Z,70.15
2022-08-19T23:43:04.036Z,69.13
2022-08-19T23:45:09.995Z,67.83
2022-08-19T23:47:12.336Z,67.18
2022-08-19T23:49:14.992Z,68.38
2022-08-19T23:51:17.484Z,69.51
2022-08-19T23:53:19.480Z,72.99
2022-08-19T23:55:24.919Z,74.53
2022-08-19T23:57:26.415Z,75.95
2022-08-19T23:59:27.893Z,77.05
